Terminal Aerodrome Forecast
Issued by NWS

Home | Current Version | Previous Version | Text Only | Print | Product List | Glossary On
Versions: 1 2 3 4 5 6 7 8 9 10 11 12 13 14 15 16 17
000
FTUS42 KRAH 300537
TAFRWI
TAF
KRWI 300537Z 3006/3106 00000KT P6SM FEW015 SCT024
     FM300900 01004KT 5SM BR BKN012 OVC070
      TEMPO 3010/3013 BKN005 OVC012
     FM301300 02005KT P6SM VCSH OVC012
     FM301700 03005KT 6SM -SHRA BR BKN025 BKN080
     FM310100 VRB04KT 5SM BR BKN015 OVC035=

USA.gov is the U.S. government's official web portal to all federal, state and local government web resources and services.